This is the latest recevied weather packets stored in our database for station/object SP2WPY-13. If no packets are shown the sender has not sent any weather packets the latest 10 day(s).
| Time | Temp. | Humidity | Pressure | Rain* | Wind** | Luminosity | Snow |
|---|---|---|---|---|---|---|---|
| 1787578827 | 20.56° C | 97% | 1022.8 hPa | - | - | - | - |
| 1787578506 | 20° C | 100% | 1022.8 hPa | - | - | - | - |
| 1787578232 | 18.89° C | 100% | 1022.9 hPa | - | - | - | - |
| 1787577913 | 18.33° C | 100% | 1022.9 hPa | - | - | - | - |
| 1787577638 | 17.78° C | 100% | 1022.9 hPa | - | - | - | - |
| 1787577319 | 17.78° C | 100% | 1023 hPa | - | - | - | - |
| 1787577045 | 17.78° C | 100% | 1023 hPa | - | - | - | - |
| 1787576726 | 18.89° C | 91% | 1023 hPa | - | - | - | - |
| 1787576406 | 20.56° C | 80% | 1022.6 hPa | - | - | - | - |
| 1787576132 | 21.11° C | 75% | 1022.5 hPa | - | - | - | - |
| 1787575811 | 20.56° C | 66% | 1022.5 hPa | - | - | - | - |
| 1787575537 | 21.11° C | 65% | 1022.5 hPa | - | - | - | - |
| 1787575217 | 21.67° C | 60% | 1022.5 hPa | - | - | - | - |
| 1787574943 | 21.67° C | 59% | 1022.4 hPa | - | - | - | - |
| 1787574623 | 21.67° C | 60% | 1022.4 hPa | - | - | - | - |
| 1787574302 | 21.67° C | 62% | 1022.4 hPa | - | - | - | - |
| 1787574027 | 22.22° C | 60% | 1022.5 hPa | - | - | - | - |
| 1787573707 | 21.67° C | 67% | 1022.4 hPa | - | - | - | - |
| 1787573432 | 21.11° C | 67% | 1022.4 hPa | - | - | - | - |
| 1787573113 | 21.11° C | 67% | 1022.4 hPa | - | - | - | - |
| 1787572839 | 21.11° C | 66% | 1022.4 hPa | - | - | - | - |
| 1787572518 | 21.11° C | 65% | 1022.3 hPa | - | - | - | - |
| 1787572244 | 21.67° C | 61% | 1022.3 hPa | - | - | - | - |
| 1787571924 | 21.67° C | 65% | 1022.2 hPa | - | - | - | - |
| 1787571605 | 21.11° C | 63% | 1022.2 hPa | - | - | - | - |
* Rain since midnight (hover to see other rain measurements)
** Current wind speed in m/s (hover to see current wind gust speed)